sensor_id;sensor_type;location;lat;lon;timestamp;temperature;humidity
356;DHT22;62514;48.112;11.566;2023-11-19T00:00:33;4.40;49.80
356;DHT22;62514;48.112;11.566;2023-11-19T00:02:59;4.40;50.20
356;DHT22;62514;48.112;11.566;2023-11-19T00:05:24;4.30;50.40
356;DHT22;62514;48.112;11.566;2023-11-19T00:07:50;4.30;50.70
356;DHT22;62514;48.112;11.566;2023-11-19T00:10:16;4.40;51.10
356;DHT22;62514;48.112;11.566;2023-11-19T00:12:47;4.50;51.40
356;DHT22;62514;48.112;11.566;2023-11-19T00:15:13;4.50;51.20
356;DHT22;62514;48.112;11.566;2023-11-19T00:17:40;4.50;52.00
356;DHT22;62514;48.112;11.566;2023-11-19T00:20:06;4.50;51.50
356;DHT22;62514;48.112;11.566;2023-11-19T00:22:33;4.50;51.40
356;DHT22;62514;48.112;11.566;2023-11-19T00:24:59;4.60;51.60
356;DHT22;62514;48.112;11.566;2023-11-19T00:27:25;4.60;51.70
356;DHT22;62514;48.112;11.566;2023-11-19T00:29:51;4.60;51.60
356;DHT22;62514;48.112;11.566;2023-11-19T00:32:17;4.50;51.90
356;DHT22;62514;48.112;11.566;2023-11-19T00:34:45;4.60;52.20
356;DHT22;62514;48.112;11.566;2023-11-19T00:37:13;4.60;52.20
356;DHT22;62514;48.112;11.566;2023-11-19T00:39:39;4.70;52.40
356;DHT22;62514;48.112;11.566;2023-11-19T00:42:05;4.70;52.30
356;DHT22;62514;48.112;11.566;2023-11-19T00:44:31;4.70;52.50
356;DHT22;62514;48.112;11.566;2023-11-19T00:46:56;4.70;52.50
356;DHT22;62514;48.112;11.566;2023-11-19T00:49:22;4.80;52.70
356;DHT22;62514;48.112;11.566;2023-11-19T00:51:48;4.80;52.70
356;DHT22;62514;48.112;11.566;2023-11-19T00:54:14;4.80;52.70
356;DHT22;62514;48.112;11.566;2023-11-19T00:56:40;4.80;52.80
356;DHT22;62514;48.112;11.566;2023-11-19T00:59:06;4.90;52.90
356;DHT22;62514;48.112;11.566;2023-11-19T01:01:31;5.00;52.60
356;DHT22;62514;48.112;11.566;2023-11-19T01:03:57;5.00;52.60
356;DHT22;62514;48.112;11.566;2023-11-19T01:06:30;4.90;52.50
356;DHT22;62514;48.112;11.566;2023-11-19T01:08:56;5.00;52.60
356;DHT22;62514;48.112;11.566;2023-11-19T01:11:25;5.00;52.80
356;DHT22;62514;48.112;11.566;2023-11-19T01:13:52;5.00;52.80
356;DHT22;62514;48.112;11.566;2023-11-19T01:16:18;5.00;52.90
356;DHT22;62514;48.112;11.566;2023-11-19T01:18:47;5.00;52.90
356;DHT22;62514;48.112;11.566;2023-11-19T01:21:14;5.10;53.20
356;DHT22;62514;48.112;11.566;2023-11-19T01:23:43;5.10;53.10
356;DHT22;62514;48.112;11.566;2023-11-19T01:26:12;5.10;53.10
356;DHT22;62514;48.112;11.566;2023-11-19T01:28:41;5.10;53.30
356;DHT22;62514;48.112;11.566;2023-11-19T01:31:14;5.10;53.50
356;DHT22;62514;48.112;11.566;2023-11-19T01:33:40;5.20;53.70
356;DHT22;62514;48.112;11.566;2023-11-19T01:36:07;5.20;53.80
356;DHT22;62514;48.112;11.566;2023-11-19T01:38:36;5.30;54.20
356;DHT22;62514;48.112;11.566;2023-11-19T01:41:02;5.30;54.10
356;DHT22;62514;48.112;11.566;2023-11-19T01:43:38;5.30;54.20
356;DHT22;62514;48.112;11.566;2023-11-19T01:46:07;5.40;54.20
356;DHT22;62514;48.112;11.566;2023-11-19T01:48:38;5.40;54.20
356;DHT22;62514;48.112;11.566;2023-11-19T01:51:07;5.50;54.20
356;DHT22;62514;48.112;11.566;2023-11-19T01:53:35;5.50;54.20
356;DHT22;62514;48.112;11.566;2023-11-19T01:56:03;5.50;54.20
356;DHT22;62514;48.112;11.566;2023-11-19T01:58:29;5.50;54.30
356;DHT22;62514;48.112;11.566;2023-11-19T02:00:56;5.60;54.40
356;DHT22;62514;48.112;11.566;2023-11-19T02:03:23;5.60;54.50
356;DHT22;62514;48.112;11.566;2023-11-19T02:05:51;5.70;54.60
356;DHT22;62514;48.112;11.566;2023-11-19T02:08:18;5.70;54.60
356;DHT22;62514;48.112;11.566;2023-11-19T02:10:44;5.70;54.90
356;DHT22;62514;48.112;11.566;2023-11-19T02:13:10;5.70;55.50
356;DHT22;62514;48.112;11.566;2023-11-19T02:15:39;5.70;54.90
356;DHT22;62514;48.112;11.566;2023-11-19T02:18:18;5.80;55.00
356;DHT22;62514;48.112;11.566;2023-11-19T02:20:45;5.80;55.00
356;DHT22;62514;48.112;11.566;2023-11-19T02:23:12;5.80;55.10
356;DHT22;62514;48.112;11.566;2023-11-19T02:25:39;5.80;55.10
356;DHT22;62514;48.112;11.566;2023-11-19T02:28:06;5.90;55.40
356;DHT22;62514;48.112;11.566;2023-11-19T02:30:32;5.90;55.40
356;DHT22;62514;48.112;11.566;2023-11-19T02:32:59;5.90;55.50
356;DHT22;62514;48.112;11.566;2023-11-19T02:35:31;5.90;55.60
356;DHT22;62514;48.112;11.566;2023-11-19T02:37:58;6.00;55.70
356;DHT22;62514;48.112;11.566;2023-11-19T02:40:26;6.00;55.70
356;DHT22;62514;48.112;11.566;2023-11-19T02:42:53;6.10;55.90
356;DHT22;62514;48.112;11.566;2023-11-19T02:45:23;6.10;56.00
356;DHT22;62514;48.112;11.566;2023-11-19T02:47:50;6.20;55.90
356;DHT22;62514;48.112;11.566;2023-11-19T02:50:16;6.20;56.10
356;DHT22;62514;48.112;11.566;2023-11-19T02:52:42;6.20;56.10
356;DHT22;62514;48.112;11.566;2023-11-19T02:55:12;6.30;56.20
356;DHT22;62514;48.112;11.566;2023-11-19T02:57:42;6.30;56.20
356;DHT22;62514;48.112;11.566;2023-11-19T03:00:17;6.40;56.20
356;DHT22;62514;48.112;11.566;2023-11-19T03:02:46;6.40;56.30
356;DHT22;62514;48.112;11.566;2023-11-19T03:05:14;6.50;56.40
356;DHT22;62514;48.112;11.566;2023-11-19T03:07:43;6.50;56.40
356;DHT22;62514;48.112;11.566;2023-11-19T03:10:12;6.50;56.40
356;DHT22;62514;48.112;11.566;2023-11-19T03:12:43;6.50;56.20
356;DHT22;62514;48.112;11.566;2023-11-19T03:15:09;6.60;56.30
356;DHT22;62514;48.112;11.566;2023-11-19T03:17:39;6.60;56.30
356;DHT22;62514;48.112;11.566;2023-11-19T03:20:07;6.60;56.20
356;DHT22;62514;48.112;11.566;2023-11-19T03:22:36;6.60;56.20
356;DHT22;62514;48.112;11.566;2023-11-19T03:25:02;6.70;56.40
356;DHT22;62514;48.112;11.566;2023-11-19T03:27:28;6.70;56.40
356;DHT22;62514;48.112;11.566;2023-11-19T03:29:54;6.70;56.30
356;DHT22;62514;48.112;11.566;2023-11-19T03:32:19;6.80;56.40
356;DHT22;62514;48.112;11.566;2023-11-19T03:34:45;6.80;56.30
356;DHT22;62514;48.112;11.566;2023-11-19T03:37:11;6.90;56.40
356;DHT22;62514;48.112;11.566;2023-11-19T03:39:37;6.90;56.40
356;DHT22;62514;48.112;11.566;2023-11-19T03:42:03;6.90;56.30
356;DHT22;62514;48.112;11.566;2023-11-19T03:44:29;7.00;56.30
356;DHT22;62514;48.112;11.566;2023-11-19T03:46:54;7.00;56.30
356;DHT22;62514;48.112;11.566;2023-11-19T03:49:20;7.00;56.90
356;DHT22;62514;48.112;11.566;2023-11-19T03:51:45;7.10;56.20
356;DHT22;62514;48.112;11.566;2023-11-19T03:54:11;7.10;56.20
356;DHT22;62514;48.112;11.566;2023-11-19T03:56:37;7.20;56.10
356;DHT22;62514;48.112;11.566;2023-11-19T03:59:03;7.10;56.00
356;DHT22;62514;48.112;11.566;2023-11-19T04:01:28;7.10;55.90
356;DHT22;62514;48.112;11.566;2023-11-19T04:03:54;7.10;55.90
356;DHT22;62514;48.112;11.566;2023-11-19T04:06:21;7.20;55.90
356;DHT22;62514;48.112;11.566;2023-11-19T04:08:47;7.20;55.90
356;DHT22;62514;48.112;11.566;2023-11-19T04:11:12;7.20;55.80
356;DHT22;62514;48.112;11.566;2023-11-19T04:13:38;7.20;55.70
356;DHT22;62514;48.112;11.566;2023-11-19T04:16:04;7.30;55.90
356;DHT22;62514;48.112;11.566;2023-11-19T04:18:30;7.30;55.90
356;DHT22;62514;48.112;11.566;2023-11-19T04:20:57;7.40;56.00
356;DHT22;62514;48.112;11.566;2023-11-19T04:23:23;7.40;55.90
356;DHT22;62514;48.112;11.566;2023-11-19T04:25:50;7.40;55.80
356;DHT22;62514;48.112;11.566;2023-11-19T04:28:16;7.40;55.70
356;DHT22;62514;48.112;11.566;2023-11-19T04:30:41;7.40;55.70
356;DHT22;62514;48.112;11.566;2023-11-19T04:33:07;7.40;55.70
356;DHT22;62514;48.112;11.566;2023-11-19T04:35:33;7.40;55.70
356;DHT22;62514;48.112;11.566;2023-11-19T04:37:58;7.50;55.70
356;DHT22;62514;48.112;11.566;2023-11-19T04:40:24;7.40;55.70
356;DHT22;62514;48.112;11.566;2023-11-19T04:42:50;7.50;55.80
356;DHT22;62514;48.112;11.566;2023-11-19T04:45:16;7.50;55.90
356;DHT22;62514;48.112;11.566;2023-11-19T04:47:42;7.60;56.10
356;DHT22;62514;48.112;11.566;2023-11-19T04:50:08;7.70;56.70
356;DHT22;62514;48.112;11.566;2023-11-19T04:52:40;7.90;57.20
356;DHT22;62514;48.112;11.566;2023-11-19T04:55:06;8.10;57.40
356;DHT22;62514;48.112;11.566;2023-11-19T04:57:32;8.40;57.60
356;DHT22;62514;48.112;11.566;2023-11-19T04:59:58;8.60;57.90
356;DHT22;62514;48.112;11.566;2023-11-19T05:02:24;8.80;58.00
356;DHT22;62514;48.112;11.566;2023-11-19T05:04:49;9.00;58.30
356;DHT22;62514;48.112;11.566;2023-11-19T05:07:15;9.10;58.50
356;DHT22;62514;48.112;11.566;2023-11-19T05:09:41;9.30;58.60
356;DHT22;62514;48.112;11.566;2023-11-19T05:12:08;9.30;58.60
356;DHT22;62514;48.112;11.566;2023-11-19T05:14:37;9.40;58.70
356;DHT22;62514;48.112;11.566;2023-11-19T05:17:03;9.40;58.70
356;DHT22;62514;48.112;11.566;2023-11-19T05:19:29;9.40;58.70
356;DHT22;62514;48.112;11.566;2023-11-19T05:21:54;9.40;58.70
356;DHT22;62514;48.112;11.566;2023-11-19T05:24:20;9.50;58.80
356;DHT22;62514;48.112;11.566;2023-11-19T05:26:46;9.50;58.70
356;DHT22;62514;48.112;11.566;2023-11-19T05:29:12;9.50;58.70
356;DHT22;62514;48.112;11.566;2023-11-19T05:31:38;9.60;59.00
356;DHT22;62514;48.112;11.566;2023-11-19T05:34:04;9.50;58.20
356;DHT22;62514;48.112;11.566;2023-11-19T05:36:29;9.60;58.20
356;DHT22;62514;48.112;11.566;2023-11-19T05:38:56;9.60;58.20
356;DHT22;62514;48.112;11.566;2023-11-19T05:41:21;9.60;58.10
356;DHT22;62514;48.112;11.566;2023-11-19T05:43:47;9.60;58.10
356;DHT22;62514;48.112;11.566;2023-11-19T05:46:12;9.60;58.60
356;DHT22;62514;48.112;11.566;2023-11-19T05:48:38;9.60;57.60
356;DHT22;62514;48.112;11.566;2023-11-19T05:51:04;9.60;57.30
356;DHT22;62514;48.112;11.566;2023-11-19T05:53:31;9.60;57.30
356;DHT22;62514;48.112;11.566;2023-11-19T05:55:57;9.60;57.30
356;DHT22;62514;48.112;11.566;2023-11-19T05:58:24;9.60;57.30
356;DHT22;62514;48.112;11.566;2023-11-19T06:00:51;9.60;57.30
356;DHT22;62514;48.112;11.566;2023-11-19T06:03:17;9.60;57.30
356;DHT22;62514;48.112;11.566;2023-11-19T06:05:45;9.60;57.30
356;DHT22;62514;48.112;11.566;2023-11-19T06:08:12;9.60;57.40
356;DHT22;62514;48.112;11.566;2023-11-19T06:10:42;9.60;57.30
356;DHT22;62514;48.112;11.566;2023-11-19T06:13:08;9.60;57.40
356;DHT22;62514;48.112;11.566;2023-11-19T06:15:36;9.60;57.40
356;DHT22;62514;48.112;11.566;2023-11-19T06:18:02;9.70;57.40
356;DHT22;62514;48.112;11.566;2023-11-19T06:20:33;9.70;57.40
356;DHT22;62514;48.112;11.566;2023-11-19T06:22:59;9.70;57.40
356;DHT22;62514;48.112;11.566;2023-11-19T06:25:25;9.70;57.50
356;DHT22;62514;48.112;11.566;2023-11-19T06:27:52;9.80;57.30
356;DHT22;62514;48.112;11.566;2023-11-19T06:30:18;9.80;57.20
356;DHT22;62514;48.112;11.566;2023-11-19T06:32:44;9.80;57.10
356;DHT22;62514;48.112;11.566;2023-11-19T06:35:09;9.80;57.10
356;DHT22;62514;48.112;11.566;2023-11-19T06:37:39;9.80;57.10
356;DHT22;62514;48.112;11.566;2023-11-19T06:40:05;9.80;57.10
356;DHT22;62514;48.112;11.566;2023-11-19T06:42:31;9.80;57.10
356;DHT22;62514;48.112;11.566;2023-11-19T06:44:57;9.80;57.10
356;DHT22;62514;48.112;11.566;2023-11-19T06:47:28;9.80;57.10
356;DHT22;62514;48.112;11.566;2023-11-19T06:49:54;9.90;57.10
356;DHT22;62514;48.112;11.566;2023-11-19T06:52:20;9.90;57.10
356;DHT22;62514;48.112;11.566;2023-11-19T06:54:46;9.90;57.10
356;DHT22;62514;48.112;11.566;2023-11-19T06:57:12;9.90;57.10
356;DHT22;62514;48.112;11.566;2023-11-19T06:59:38;10.00;57.00
356;DHT22;62514;48.112;11.566;2023-11-19T07:02:05;10.00;56.80
356;DHT22;62514;48.112;11.566;2023-11-19T07:04:31;10.00;56.60
356;DHT22;62514;48.112;11.566;2023-11-19T07:06:57;10.00;56.60
356;DHT22;62514;48.112;11.566;2023-11-19T07:09:22;10.10;57.30
356;DHT22;62514;48.112;11.566;2023-11-19T07:11:49;10.00;56.40
356;DHT22;62514;48.112;11.566;2023-11-19T07:14:17;10.10;56.50
356;DHT22;62514;48.112;11.566;2023-11-19T07:16:43;10.10;56.50
356;DHT22;62514;48.112;11.566;2023-11-19T07:19:09;10.10;56.50
356;DHT22;62514;48.112;11.566;2023-11-19T07:21:35;10.10;56.30
356;DHT22;62514;48.112;11.566;2023-11-19T07:24:05;10.10;56.20
356;DHT22;62514;48.112;11.566;2023-11-19T07:26:31;10.20;56.30
356;DHT22;62514;48.112;11.566;2023-11-19T07:28:57;10.20;56.10
356;DHT22;62514;48.112;11.566;2023-11-19T07:31:23;10.20;56.00
356;DHT22;62514;48.112;11.566;2023-11-19T07:33:49;10.30;55.70
356;DHT22;62514;48.112;11.566;2023-11-19T07:36:15;10.30;55.50
356;DHT22;62514;48.112;11.566;2023-11-19T07:38:41;10.30;55.40
356;DHT22;62514;48.112;11.566;2023-11-19T07:41:08;10.40;55.00
356;DHT22;62514;48.112;11.566;2023-11-19T07:43:43;10.40;54.80
356;DHT22;62514;48.112;11.566;2023-11-19T07:46:13;10.50;54.50
356;DHT22;62514;48.112;11.566;2023-11-19T07:48:40;10.50;54.10
356;DHT22;62514;48.112;11.566;2023-11-19T07:51:06;10.50;54.00
356;DHT22;62514;48.112;11.566;2023-11-19T07:53:31;10.60;53.90
356;DHT22;62514;48.112;11.566;2023-11-19T07:55:58;10.50;53.60
356;DHT22;62514;48.112;11.566;2023-11-19T07:58:27;10.60;53.60
356;DHT22;62514;48.112;11.566;2023-11-19T08:00:52;10.60;53.60
356;DHT22;62514;48.112;11.566;2023-11-19T08:03:18;10.60;53.60
356;DHT22;62514;48.112;11.566;2023-11-19T08:05:49;10.60;53.50
356;DHT22;62514;48.112;11.566;2023-11-19T08:08:16;10.60;53.20
356;DHT22;62514;48.112;11.566;2023-11-19T08:10:42;10.60;53.20
356;DHT22;62514;48.112;11.566;2023-11-19T08:13:08;10.70;52.90
356;DHT22;62514;48.112;11.566;2023-11-19T08:15:34;10.70;52.90
356;DHT22;62514;48.112;11.566;2023-11-19T08:18:00;10.70;52.50
356;DHT22;62514;48.112;11.566;2023-11-19T08:20:25;10.80;52.00
356;DHT22;62514;48.112;11.566;2023-11-19T08:22:51;10.80;52.00
356;DHT22;62514;48.112;11.566;2023-11-19T08:25:17;10.80;51.10
356;DHT22;62514;48.112;11.566;2023-11-19T08:27:43;10.80;51.40
356;DHT22;62514;48.112;11.566;2023-11-19T08:30:09;10.90;51.50
356;DHT22;62514;48.112;11.566;2023-11-19T08:32:35;10.90;51.80
356;DHT22;62514;48.112;11.566;2023-11-19T08:35:01;11.00;51.00
356;DHT22;62514;48.112;11.566;2023-11-19T08:37:26;11.00;50.70
356;DHT22;62514;48.112;11.566;2023-11-19T08:39:52;11.00;49.90
356;DHT22;62514;48.112;11.566;2023-11-19T08:42:18;11.10;50.70
356;DHT22;62514;48.112;11.566;2023-11-19T08:44:48;11.10;50.00
356;DHT22;62514;48.112;11.566;2023-11-19T08:47:16;11.20;49.80
356;DHT22;62514;48.112;11.566;2023-11-19T08:49:44;11.20;50.10
356;DHT22;62514;48.112;11.566;2023-11-19T08:52:09;11.20;49.90
356;DHT22;62514;48.112;11.566;2023-11-19T08:54:36;11.30;49.40
356;DHT22;62514;48.112;11.566;2023-11-19T08:57:03;11.30;49.40
356;DHT22;62514;48.112;11.566;2023-11-19T08:59:29;11.30;48.20
356;DHT22;62514;48.112;11.566;2023-11-19T09:01:55;11.30;48.40
356;DHT22;62514;48.112;11.566;2023-11-19T09:04:21;11.40;48.40
356;DHT22;62514;48.112;11.566;2023-11-19T09:06:48;11.40;49.30
356;DHT22;62514;48.112;11.566;2023-11-19T09:09:14;11.40;48.20
356;DHT22;62514;48.112;11.566;2023-11-19T09:11:40;11.50;47.80
356;DHT22;62514;48.112;11.566;2023-11-19T09:14:06;11.40;47.70
356;DHT22;62514;48.112;11.566;2023-11-19T09:16:32;11.50;47.90
356;DHT22;62514;48.112;11.566;2023-11-19T09:18:58;11.50;47.60
356;DHT22;62514;48.112;11.566;2023-11-19T09:21:27;11.50;47.50
356;DHT22;62514;48.112;11.566;2023-11-19T09:23:55;11.50;47.30
356;DHT22;62514;48.112;11.566;2023-11-19T09:26:20;11.50;47.30
356;DHT22;62514;48.112;11.566;2023-11-19T09:28:46;11.50;47.00
356;DHT22;62514;48.112;11.566;2023-11-19T09:31:18;11.50;46.80
356;DHT22;62514;48.112;11.566;2023-11-19T09:33:45;11.60;46.80
356;DHT22;62514;48.112;11.566;2023-11-19T09:36:14;11.60;46.30
356;DHT22;62514;48.112;11.566;2023-11-19T09:38:40;11.60;45.50
356;DHT22;62514;48.112;11.566;2023-11-19T09:41:06;11.60;46.10
356;DHT22;62514;48.112;11.566;2023-11-19T09:43:35;11.60;46.40
356;DHT22;62514;48.112;11.566;2023-11-19T09:46:05;11.70;46.40
356;DHT22;62514;48.112;11.566;2023-11-19T09:48:36;11.70;46.80
356;DHT22;62514;48.112;11.566;2023-11-19T09:51:06;11.70;46.90
356;DHT22;62514;48.112;11.566;2023-11-19T09:53:33;11.70;46.50
356;DHT22;62514;48.112;11.566;2023-11-19T09:56:00;11.70;47.60
356;DHT22;62514;48.112;11.566;2023-11-19T09:58:29;11.70;47.30
356;DHT22;62514;48.112;11.566;2023-11-19T10:00:55;11.80;47.20
356;DHT22;62514;48.112;11.566;2023-11-19T10:03:22;11.80;46.30
356;DHT22;62514;48.112;11.566;2023-11-19T10:05:48;11.90;46.90
356;DHT22;62514;48.112;11.566;2023-11-19T10:08:14;11.90;45.80
356;DHT22;62514;48.112;11.566;2023-11-19T10:10:39;12.00;44.80
356;DHT22;62514;48.112;11.566;2023-11-19T10:13:05;12.10;43.90
356;DHT22;62514;48.112;11.566;2023-11-19T10:15:36;12.10;43.40
356;DHT22;62514;48.112;11.566;2023-11-19T10:18:02;12.10;42.00
356;DHT22;62514;48.112;11.566;2023-11-19T10:20:35;12.10;42.90
356;DHT22;62514;48.112;11.566;2023-11-19T10:23:01;12.30;43.40
356;DHT22;62514;48.112;11.566;2023-11-19T10:25:29;12.30;42.30
356;DHT22;62514;48.112;11.566;2023-11-19T10:27:56;12.30;41.80
356;DHT22;62514;48.112;11.566;2023-11-19T10:30:24;12.40;40.90
356;DHT22;62514;48.112;11.566;2023-11-19T10:33:09;12.60;39.70
356;DHT22;62514;48.112;11.566;2023-11-19T10:35:56;13.00;39.10
356;DHT22;62514;48.112;11.566;2023-11-19T10:38:22;13.10;36.40
356;DHT22;62514;48.112;11.566;2023-11-19T10:40:49;13.10;36.40
356;DHT22;62514;48.112;11.566;2023-11-19T10:43:14;13.10;37.00
356;DHT22;62514;48.112;11.566;2023-11-19T10:45:40;13.20;35.40
356;DHT22;62514;48.112;11.566;2023-11-19T10:48:07;13.40;34.00
356;DHT22;62514;48.112;11.566;2023-11-19T10:50:39;13.60;34.00
356;DHT22;62514;48.112;11.566;2023-11-19T10:53:06;13.90;33.10
356;DHT22;62514;48.112;11.566;2023-11-19T10:55:33;14.20;31.90
356;DHT22;62514;48.112;11.566;2023-11-19T10:58:03;14.40;28.50
356;DHT22;62514;48.112;11.566;2023-11-19T11:01:00;14.50;27.50
356;DHT22;62514;48.112;11.566;2023-11-19T11:03:35;14.30;27.30
356;DHT22;62514;48.112;11.566;2023-11-19T11:06:05;14.00;27.70
356;DHT22;62514;48.112;11.566;2023-11-19T11:08:31;13.80;29.80
356;DHT22;62514;48.112;11.566;2023-11-19T11:11:02;13.70;30.40
356;DHT22;62514;48.112;11.566;2023-11-19T11:13:30;13.70;30.30
356;DHT22;62514;48.112;11.566;2023-11-19T11:15:57;13.90;31.20
356;DHT22;62514;48.112;11.566;2023-11-19T11:18:24;14.30;29.50
356;DHT22;62514;48.112;11.566;2023-11-19T11:20:55;14.50;25.80
356;DHT22;62514;48.112;11.566;2023-11-19T11:34:53;14.20;26.40
356;DHT22;62514;48.112;11.566;2023-11-19T11:37:42;14.30;28.00
356;DHT22;62514;48.112;11.566;2023-11-19T11:40:15;14.60;26.70
356;DHT22;62514;48.112;11.566;2023-11-19T11:42:41;14.60;24.30
356;DHT22;62514;48.112;11.566;2023-11-19T11:45:14;14.50;23.20
356;DHT22;62514;48.112;11.566;2023-11-19T11:53:13;14.30;23.60
356;DHT22;62514;48.112;11.566;2023-11-19T11:55:59;14.70;25.80
356;DHT22;62514;48.112;11.566;2023-11-19T11:58:30;15.40;22.60
356;DHT22;62514;48.112;11.566;2023-11-19T12:01:00;16.00;18.20
356;DHT22;62514;48.112;11.566;2023-11-19T12:03:28;16.00;17.80
356;DHT22;62514;48.112;11.566;2023-11-19T12:05:54;15.60;18.10
356;DHT22;62514;48.112;11.566;2023-11-19T12:08:20;15.90;17.50
356;DHT22;62514;48.112;11.566;2023-11-19T12:10:51;16.10;15.50
356;DHT22;62514;48.112;11.566;2023-11-19T12:13:23;16.00;15.40
356;DHT22;62514;48.112;11.566;2023-11-19T12:18:27;16.50;14.70
356;DHT22;62514;48.112;11.566;2023-11-19T12:20:54;16.50;13.80
356;DHT22;62514;48.112;11.566;2023-11-19T12:23:19;16.60;13.50
356;DHT22;62514;48.112;11.566;2023-11-19T12:25:45;16.40;13.70
356;DHT22;62514;48.112;11.566;2023-11-19T12:28:15;16.40;13.50
356;DHT22;62514;48.112;11.566;2023-11-19T12:30:44;16.40;13.30
356;DHT22;62514;48.112;11.566;2023-11-19T12:33:11;15.80;13.50
356;DHT22;62514;48.112;11.566;2023-11-19T12:35:44;15.60;16.50
356;DHT22;62514;48.112;11.566;2023-11-19T12:38:21;15.30;16.50
356;DHT22;62514;48.112;11.566;2023-11-19T12:40:47;14.80;18.10
356;DHT22;62514;48.112;11.566;2023-11-19T12:43:21;14.90;18.50
356;DHT22;62514;48.112;11.566;2023-11-19T12:45:50;15.10;18.00
356;DHT22;62514;48.112;11.566;2023-11-19T12:48:16;15.30;17.00
356;DHT22;62514;48.112;11.566;2023-11-19T12:50:58;15.50;15.80
356;DHT22;62514;48.112;11.566;2023-11-19T12:53:26;15.90;14.40
356;DHT22;62514;48.112;11.566;2023-11-19T12:55:52;16.00;13.60
356;DHT22;62514;48.112;11.566;2023-11-19T12:58:48;15.70;14.00
356;DHT22;62514;48.112;11.566;2023-11-19T13:01:18;15.90;14.90
356;DHT22;62514;48.112;11.566;2023-11-19T13:03:44;15.90;14.40
356;DHT22;62514;48.112;11.566;2023-11-19T13:06:12;15.60;14.80
356;DHT22;62514;48.112;11.566;2023-11-19T13:08:45;15.50;14.50
356;DHT22;62514;48.112;11.566;2023-11-19T13:11:12;15.40;15.30
356;DHT22;62514;48.112;11.566;2023-11-19T13:14:14;15.30;15.70
356;DHT22;62514;48.112;11.566;2023-11-19T13:16:39;15.30;16.40
356;DHT22;62514;48.112;11.566;2023-11-19T13:19:05;15.10;16.70
356;DHT22;62514;48.112;11.566;2023-11-19T13:21:31;15.00;17.20
356;DHT22;62514;48.112;11.566;2023-11-19T13:23:57;14.90;18.00
356;DHT22;62514;48.112;11.566;2023-11-19T13:26:23;14.80;17.90
356;DHT22;62514;48.112;11.566;2023-11-19T13:28:48;14.70;18.80
356;DHT22;62514;48.112;11.566;2023-11-19T13:31:14;14.60;19.90
356;DHT22;62514;48.112;11.566;2023-11-19T13:33:40;14.50;19.40
356;DHT22;62514;48.112;11.566;2023-11-19T13:36:06;14.40;21.00
356;DHT22;62514;48.112;11.566;2023-11-19T13:38:36;14.30;20.00
356;DHT22;62514;48.112;11.566;2023-11-19T13:41:03;14.40;20.70
356;DHT22;62514;48.112;11.566;2023-11-19T13:43:30;14.20;21.50
356;DHT22;62514;48.112;11.566;2023-11-19T13:45:56;14.20;21.80
356;DHT22;62514;48.112;11.566;2023-11-19T13:48:23;14.20;21.90
356;DHT22;62514;48.112;11.566;2023-11-19T13:50:49;14.10;21.60
356;DHT22;62514;48.112;11.566;2023-11-19T13:53:15;13.90;22.60
356;DHT22;62514;48.112;11.566;2023-11-19T13:55:42;13.80;23.30
356;DHT22;62514;48.112;11.566;2023-11-19T13:58:08;13.80;24.00
356;DHT22;62514;48.112;11.566;2023-11-19T14:00:33;13.80;24.10
356;DHT22;62514;48.112;11.566;2023-11-19T14:02:59;13.80;24.50
356;DHT22;62514;48.112;11.566;2023-11-19T14:05:24;13.70;24.90
356;DHT22;62514;48.112;11.566;2023-11-19T14:07:50;13.70;24.90
356;DHT22;62514;48.112;11.566;2023-11-19T14:10:17;13.60;25.40
356;DHT22;62514;48.112;11.566;2023-11-19T14:12:43;13.60;25.80
356;DHT22;62514;48.112;11.566;2023-11-19T14:15:09;13.60;25.70
356;DHT22;62514;48.112;11.566;2023-11-19T14:17:38;13.60;26.20
356;DHT22;62514;48.112;11.566;2023-11-19T14:20:04;13.60;26.50
356;DHT22;62514;48.112;11.566;2023-11-19T14:22:44;13.60;26.50
356;DHT22;62514;48.112;11.566;2023-11-19T14:25:10;13.60;26.20
356;DHT22;62514;48.112;11.566;2023-11-19T14:27:37;13.50;26.70
356;DHT22;62514;48.112;11.566;2023-11-19T14:30:05;13.60;26.50
356;DHT22;62514;48.112;11.566;2023-11-19T14:32:31;13.60;26.60
356;DHT22;62514;48.112;11.566;2023-11-19T14:34:57;13.60;25.80
356;DHT22;62514;48.112;11.566;2023-11-19T14:37:23;13.60;25.50
356;DHT22;62514;48.112;11.566;2023-11-19T14:39:48;13.50;25.00
356;DHT22;62514;48.112;11.566;2023-11-19T14:42:16;13.50;24.90
356;DHT22;62514;48.112;11.566;2023-11-19T14:44:42;13.50;23.60
356;DHT22;62514;48.112;11.566;2023-11-19T14:47:07;13.50;24.20
356;DHT22;62514;48.112;11.566;2023-11-19T14:49:35;13.40;23.20
356;DHT22;62514;48.112;11.566;2023-11-19T14:52:03;13.50;23.70
356;DHT22;62514;48.112;11.566;2023-11-19T14:54:28;13.40;24.00
356;DHT22;62514;48.112;11.566;2023-11-19T14:56:54;13.40;23.60
356;DHT22;62514;48.112;11.566;2023-11-19T14:59:20;13.40;23.90
356;DHT22;62514;48.112;11.566;2023-11-19T15:01:45;13.30;23.90
356;DHT22;62514;48.112;11.566;2023-11-19T15:04:12;13.20;24.60
356;DHT22;62514;48.112;11.566;2023-11-19T15:06:37;13.20;24.90
356;DHT22;62514;48.112;11.566;2023-11-19T15:09:04;13.20;25.00
356;DHT22;62514;48.112;11.566;2023-11-19T15:11:29;13.10;25.20
356;DHT22;62514;48.112;11.566;2023-11-19T15:13:56;13.00;25.20
356;DHT22;62514;48.112;11.566;2023-11-19T15:16:21;13.00;25.80
356;DHT22;62514;48.112;11.566;2023-11-19T15:18:59;13.00;25.80
356;DHT22;62514;48.112;11.566;2023-11-19T15:21:30;12.90;26.40
356;DHT22;62514;48.112;11.566;2023-11-19T15:23:56;12.80;26.50
356;DHT22;62514;48.112;11.566;2023-11-19T15:26:22;12.70;26.90
356;DHT22;62514;48.112;11.566;2023-11-19T15:28:48;12.70;27.60
356;DHT22;62514;48.112;11.566;2023-11-19T15:31:13;12.60;27.80
356;DHT22;62514;48.112;11.566;2023-11-19T15:33:42;12.60;27.80
356;DHT22;62514;48.112;11.566;2023-11-19T15:36:08;12.50;28.30
356;DHT22;62514;48.112;11.566;2023-11-19T15:38:34;12.50;28.60
356;DHT22;62514;48.112;11.566;2023-11-19T15:41:00;12.40;28.70
356;DHT22;62514;48.112;11.566;2023-11-19T15:43:25;12.40;29.20
356;DHT22;62514;48.112;11.566;2023-11-19T15:45:51;12.30;29.60
356;DHT22;62514;48.112;11.566;2023-11-19T15:48:17;12.30;29.80
356;DHT22;62514;48.112;11.566;2023-11-19T15:50:43;12.20;30.50
356;DHT22;62514;48.112;11.566;2023-11-19T15:53:10;12.20;30.40
356;DHT22;62514;48.112;11.566;2023-11-19T15:55:36;12.20;30.40
356;DHT22;62514;48.112;11.566;2023-11-19T15:58:02;12.10;30.40
356;DHT22;62514;48.112;11.566;2023-11-19T16:00:27;12.10;30.60
356;DHT22;62514;48.112;11.566;2023-11-19T16:02:53;12.10;30.90
356;DHT22;62514;48.112;11.566;2023-11-19T16:05:19;12.10;31.40
356;DHT22;62514;48.112;11.566;2023-11-19T16:07:45;12.00;31.40
356;DHT22;62514;48.112;11.566;2023-11-19T16:10:11;12.00;31.80
356;DHT22;62514;48.112;11.566;2023-11-19T16:12:39;12.10;32.00